Time;durP1;ratioP1;P1;durP2;ratioP2;P2;SDS_P1;SDS_P2;PMS_P1;PMS_P2;Temp;Humidity;BMP_temperature;BMP_pressure;BME280_temperature;BME280_humidity;BME280_pressure;Samples;Min_cycle;Max_cycle;Signal;HPM_P1;HPM_P2
2021/11/11 00:01:42;;;;;;;65.53;33.03;;;1.30;99.90;;;;;;5053086;28;20604;-67
2021/11/11 00:04:10;;;;;;;69.38;34.03;;;1.30;99.90;;;;;;5052012;28;20489;-67
2021/11/11 00:06:38;;;;;;;64.35;33.25;;;1.20;99.90;;;;;;5051841;28;20351;-68
2021/11/11 00:09:05;;;;;;;75.47;35.88;;;1.20;99.90;;;;;;5052451;28;20029;-68
2021/11/11 00:11:31;;;;;;;66.63;35.20;;;1.20;99.90;;;;;;5051636;28;20029;-67
2021/11/11 00:13:57;;;;;;;60.92;32.00;;;1.10;99.90;;;;;;5051939;28;20045;-67
2021/11/11 00:16:25;;;;;;;66.32;33.85;;;1.10;99.90;;;;;;5050669;28;20044;-68
2021/11/11 00:18:51;;;;;;;66.68;33.22;;;1.10;99.90;;;;;;5052045;28;20107;-67
2021/11/11 00:21:16;;;;;;;69.32;34.35;;;1.00;99.90;;;;;;5051437;28;20080;-67
2021/11/11 00:23:42;;;;;;;65.07;33.10;;;1.00;99.90;;;;;;5050362;28;20602;-67
2021/11/11 00:26:09;;;;;;;65.45;33.05;;;1.00;99.90;;;;;;5050908;28;20455;-67
2021/11/11 00:28:34;;;;;;;70.13;34.33;;;0.90;99.90;;;;;;5049628;28;21782;-68
2021/11/11 00:31:00;;;;;;;69.40;33.92;;;0.90;99.90;;;;;;5050984;28;20036;-67
2021/11/11 00:33:27;;;;;;;73.82;36.85;;;1.00;99.90;;;;;;5048820;28;20059;-68
2021/11/11 00:35:53;;;;;;;84.13;36.65;;;0.90;99.90;;;;;;5051471;28;20041;-67
2021/11/11 00:38:19;;;;;;;74.00;35.53;;;0.90;99.90;;;;;;5051126;28;20083;-68
2021/11/11 00:40:44;;;;;;;64.10;33.85;;;0.80;99.90;;;;;;5050312;28;20032;-69
2021/11/11 00:43:10;;;;;;;69.32;33.58;;;0.80;99.90;;;;;;5051660;28;20039;-68
2021/11/11 00:45:38;;;;;;;63.78;32.35;;;0.80;99.90;;;;;;5049156;28;20064;-67
2021/11/11 00:48:07;;;;;;;64.72;33.45;;;0.80;99.90;;;;;;5050920;28;20462;-67
2021/11/11 00:50:35;;;;;;;66.53;34.38;;;0.80;99.90;;;;;;5049899;28;20037;-68
2021/11/11 00:53:02;;;;;;;66.05;34.50;;;0.70;99.90;;;;;;5051423;28;20119;-68
2021/11/11 00:55:28;;;;;;;76.13;37.13;;;0.70;99.90;;;;;;5050604;28;20056;-67
2021/11/11 00:57:54;;;;;;;74.07;38.10;;;0.80;99.90;;;;;;5050877;28;20061;-67
2021/11/11 01:00:21;;;;;;;72.07;37.08;;;0.80;99.90;;;;;;5051442;28;20500;-67
2021/11/11 01:02:48;;;;;;;77.93;36.88;;;0.80;99.90;;;;;;5051757;28;20036;-67
2021/11/11 01:05:15;;;;;;;76.15;36.25;;;0.80;99.90;;;;;;5051264;28;20029;-67
2021/11/11 01:07:41;;;;;;;83.88;38.53;;;0.80;99.90;;;;;;5049888;28;20037;-67
2021/11/11 01:10:13;;;;;;;72.57;35.63;;;0.80;99.90;;;;;;5050944;28;20033;-67
2021/11/11 01:12:39;;;;;;;82.53;36.97;;;0.70;99.90;;;;;;5050193;28;20055;-67
2021/11/11 01:15:08;;;;;;;89.10;38.80;;;0.70;99.90;;;;;;5050888;28;20102;-67
2021/11/11 01:17:34;;;;;;;85.57;40.28;;;0.80;99.90;;;;;;5050275;28;20040;-68
2021/11/11 01:20:00;;;;;;;92.25;41.25;;;0.80;99.90;;;;;;5049928;28;20033;-67
2021/11/11 01:22:28;;;;;;;90.63;40.40;;;0.80;99.90;;;;;;5050817;28;20029;-67
2021/11/11 01:24:53;;;;;;;88.10;40.38;;;0.90;99.90;;;;;;5051147;28;20029;-67
2021/11/11 01:27:19;;;;;;;78.53;38.55;;;1.00;99.90;;;;;;5050347;28;20048;-68
2021/11/11 01:29:45;;;;;;;81.80;39.40;;;1.10;99.90;;;;;;5050221;28;20029;-67
2021/11/11 01:32:10;;;;;;;94.28;39.35;;;1.10;99.90;;;;;;5051270;28;20051;-67
2021/11/11 01:34:36;;;;;;;88.00;41.75;;;1.10;99.90;;;;;;5049579;28;20036;-67
2021/11/11 01:37:02;;;;;;;96.63;42.60;;;1.10;99.90;;;;;;5051039;28;20429;-68
2021/11/11 01:39:29;;;;;;;83.10;40.50;;;1.20;99.90;;;;;;5048578;28;20106;-69
2021/11/11 01:41:54;;;;;;;80.22;38.53;;;1.30;99.90;;;;;;5047092;28;20489;-67
2021/11/11 01:44:20;;;;;;;81.00;35.47;;;1.30;99.90;;;;;;5050644;28;20041;-67
2021/11/11 01:46:46;;;;;;;72.70;34.97;;;1.30;99.90;;;;;;5052164;28;20131;-67
2021/11/11 01:49:13;;;;;;;63.60;32.28;;;1.20;99.90;;;;;;5053148;28;20115;-68
2021/11/11 01:51:40;;;;;;;67.32;35.03;;;1.20;99.90;;;;;;5051962;28;20049;-68
2021/11/11 01:54:07;;;;;;;67.80;34.17;;;1.10;99.90;;;;;;5052729;28;20033;-67
2021/11/11 01:56:33;;;;;;;69.15;33.78;;;1.00;99.90;;;;;;5049134;28;20059;-67
2021/11/11 01:58:59;;;;;;;65.38;33.00;;;1.00;99.90;;;;;;5053305;28;20154;-67
2021/11/11 02:01:25;;;;;;;60.13;31.08;;;0.90;99.90;;;;;;5053108;28;20025;-67
2021/11/11 02:03:54;;;;;;;67.40;33.08;;;0.90;99.90;;;;;;5053950;28;20021;-67
2021/11/11 02:06:22;;;;;;;58.25;29.90;;;0.80;99.90;;;;;;5054620;28;20078;-67
2021/11/11 02:08:48;;;;;;;60.50;31.00;;;0.90;99.90;;;;;;5053512;28;20036;-67
2021/11/11 02:11:14;;;;;;;57.20;30.55;;;0.80;99.90;;;;;;5053979;28;20124;-67
2021/11/11 02:13:40;;;;;;;65.35;33.90;;;0.70;99.90;;;;;;5053130;28;20139;-67
2021/11/11 02:16:07;;;;;;;69.63;34.53;;;0.70;99.90;;;;;;5054236;28;20025;-67
2021/11/11 02:18:33;;;;;;;68.43;34.22;;;0.70;99.90;;;;;;5053232;28;20021;-67
2021/11/11 02:21:00;;;;;;;57.33;30.98;;;0.70;99.90;;;;;;5054080;28;20053;-67
2021/11/11 02:23:33;;;;;;;66.75;32.67;;;0.70;99.90;;;;;;5053797;28;20074;-67
2021/11/11 02:25:58;;;;;;;62.80;32.03;;;0.60;99.90;;;;;;5053911;28;20037;-67
2021/11/11 02:28:24;;;;;;;73.90;34.60;;;0.60;99.90;;;;;;5053648;28;20025;-67
2021/11/11 02:30:52;;;;;;;65.00;32.92;;;0.60;99.90;;;;;;5052755;28;20041;-67
2021/11/11 02:33:24;;;;;;;84.95;37.30;;;0.50;99.90;;;;;;5054524;28;20039;-67
2021/11/11 02:35:51;;;;;;;88.10;38.85;;;0.60;99.90;;;;;;5052289;28;20036;-67
2021/11/11 02:38:17;;;;;;;104.05;40.92;;;0.60;99.90;;;;;;5054157;28;20063;-67
2021/11/11 02:40:44;;;;;;;79.80;37.08;;;0.70;99.90;;;;;;5053068;28;20108;-67
2021/11/11 02:43:12;;;;;;;80.50;36.65;;;0.80;99.90;;;;;;5033959;28;20112;-68
2021/11/11 02:45:42;;;;;;;81.80;37.45;;;0.80;99.90;;;;;;5033312;28;20054;-68
2021/11/11 02:48:10;;;;;;;98.97;39.67;;;0.80;99.90;;;;;;5034076;28;20367;-68
2021/11/11 02:50:36;;;;;;;75.88;37.70;;;0.90;99.90;;;;;;5047476;28;20047;-68
2021/11/11 02:53:03;;;;;;;68.93;35.17;;;0.90;99.90;;;;;;5054127;28;20417;-66
2021/11/11 02:55:30;;;;;;;72.88;35.08;;;0.90;99.90;;;;;;5038203;28;20029;-67
2021/11/11 02:57:57;;;;;;;59.03;31.70;;;0.90;99.90;;;;;;5043408;28;20025;-66
2021/11/11 03:00:39;;;;;;;75.03;33.22;;;0.80;99.90;;;;;;5053302;28;20505;-66
2021/11/11 03:03:05;;;;;;;66.53;32.97;;;0.80;99.90;;;;;;5053712;28;20029;-66
2021/11/11 03:05:32;;;;;;;68.85;34.10;;;0.70;99.90;;;;;;5039805;28;20040;-67
2021/11/11 03:07:58;;;;;;;65.80;33.70;;;0.70;99.90;;;;;;5043501;28;20379;-67
2021/11/11 03:10:28;;;;;;;67.88;33.00;;;0.70;99.90;;;;;;5052066;28;20074;-67
2021/11/11 03:12:55;;;;;;;62.83;32.17;;;0.60;99.90;;;;;;5052906;28;20040;-67
2021/11/11 03:15:22;;;;;;;73.40;34.20;;;0.60;99.90;;;;;;5053146;28;20069;-67
2021/11/11 03:17:49;;;;;;;77.35;34.30;;;0.50;99.90;;;;;;5044302;28;20113;-67
2021/11/11 03:20:16;;;;;;;77.38;36.17;;;0.50;99.90;;;;;;5033613;28;20475;-67
2021/11/11 03:22:42;;;;;;;74.70;36.33;;;0.50;99.90;;;;;;5044814;28;20032;-67
2021/11/11 03:25:11;;;;;;;75.25;36.25;;;0.50;99.90;;;;;;5048779;28;20025;-66
2021/11/11 03:27:37;;;;;;;71.80;35.60;;;0.50;99.90;;;;;;5050352;28;20033;-67
2021/11/11 03:30:06;;;;;;;81.25;34.35;;;0.60;99.90;;;;;;5050787;28;20041;-67
2021/11/11 03:32:32;;;;;;;78.10;35.50;;;0.70;99.90;;;;;;5052366;28;20037;-67
2021/11/11 03:34:58;;;;;;;66.88;32.58;;;0.70;99.90;;;;;;5050625;28;20033;-67
2021/11/11 03:37:23;;;;;;;54.47;29.73;;;0.60;99.90;;;;;;5033254;28;20025;-67
2021/11/11 03:39:50;;;;;;;72.13;34.25;;;0.60;99.90;;;;;;5040377;28;20596;-67
2021/11/11 03:42:16;;;;;;;75.30;34.15;;;0.50;99.90;;;;;;5052224;28;20029;-67
2021/11/11 03:44:44;;;;;;;65.13;32.88;;;0.50;99.90;;;;;;5051418;28;20389;-67
2021/11/11 03:47:10;;;;;;;72.88;35.17;;;0.40;99.90;;;;;;5052706;28;20112;-66
2021/11/11 03:49:37;;;;;;;73.65;35.55;;;0.40;99.90;;;;;;5045049;28;20033;-66
2021/11/11 03:52:04;;;;;;;75.30;36.17;;;0.40;99.90;;;;;;5032578;28;20458;-66
2021/11/11 03:54:34;;;;;;;59.63;31.77;;;0.40;99.90;;;;;;5032735;28;20022;-66
2021/11/11 03:57:00;;;;;;;65.72;30.77;;;0.30;99.90;;;;;;5037346;28;20033;-66
2021/11/11 03:59:27;;;;;;;75.15;36.40;;;0.30;99.90;;;;;;5052627;28;20112;-66
2021/11/11 04:01:54;;;;;;;76.35;35.25;;;0.20;99.90;;;;;;5051538;28;20032;-66
2021/11/11 04:04:20;;;;;;;69.40;34.40;;;0.20;99.90;;;;;;5052205;28;20450;-66
2021/11/11 04:06:48;;;;;;;74.95;34.92;;;0.10;99.90;;;;;;5051809;28;20024;-66
2021/11/11 04:09:14;;;;;;;71.50;34.95;;;0.10;99.90;;;;;;5052620;28;20032;-66
2021/11/11 04:11:40;;;;;;;74.10;36.10;;;0.10;99.90;;;;;;5050151;28;20037;-65
2021/11/11 04:14:07;;;;;;;70.80;34.30;;;0.10;99.90;;;;;;5052423;28;20075;-66
2021/11/11 04:16:33;;;;;;;71.03;34.00;;;0.00;99.90;;;;;;5031698;28;20030;-66
2021/11/11 04:19:00;;;;;;;70.43;32.85;;;0.00;99.90;;;;;;5046503;28;20037;-68
2021/11/11 04:21:26;;;;;;;74.97;34.53;;;0.00;99.90;;;;;;5033967;28;20382;-68
2021/11/11 04:23:53;;;;;;;72.60;35.00;;;0.00;99.90;;;;;;5051495;28;20017;-68
2021/11/11 04:26:23;;;;;;;77.35;35.28;;;-0.10;99.90;;;;;;5052161;28;20036;-66
2021/11/11 04:29:00;;;;;;;;;;;-0.10;99.90;;;;;;5051660;28;20039;-67
2021/11/11 04:31:34;;;;;;;89.22;35.67;;;-0.10;99.90;;;;;;5051631;28;20269;-68
2021/11/11 04:34:04;;;;;;;74.60;34.28;;;-0.10;99.90;;;;;;5051908;28;20089;-68
2021/11/11 05:03:35;;;;;;;93.30;41.50;;;0.00;99.90;;;;;;5049611;28;20099;-68
2021/11/11 05:06:01;;;;;;;80.43;38.90;;;0.00;99.90;;;;;;5050585;28;20029;-67
2021/11/11 05:08:28;;;;;;;82.47;38.05;;;0.00;99.90;;;;;;5047509;28;20033;-68
2021/11/11 05:10:55;;;;;;;81.10;38.25;;;-0.10;99.90;;;;;;5049257;28;20178;-68
2021/11/11 05:13:21;;;;;;;87.50;41.22;;;-0.10;99.90;;;;;;5050412;28;20412;-67
2021/11/11 05:15:47;;;;;;;72.85;37.40;;;-0.10;99.90;;;;;;5049209;28;20874;-67
2021/11/11 05:18:13;;;;;;;72.35;35.90;;;-0.10;99.90;;;;;;5050860;28;20406;-68
2021/11/11 05:20:39;;;;;;;69.03;34.75;;;-0.10;99.90;;;;;;5053642;28;20025;-68
2021/11/11 05:23:05;;;;;;;67.05;35.40;;;-0.10;99.90;;;;;;5053894;28;20028;-67
2021/11/11 05:25:33;;;;;;;78.97;37.88;;;-0.10;99.90;;;;;;5053997;28;20039;-68
2021/11/11 05:28:00;;;;;;;70.43;35.70;;;-0.20;99.90;;;;;;5053588;28;20072;-67
2021/11/11 05:30:27;;;;;;;67.07;33.80;;;-0.20;99.90;;;;;;5054030;28;20493;-68
2021/11/11 05:32:55;;;;;;;58.53;31.63;;;-0.10;99.90;;;;;;5052969;28;20032;-67
2021/11/11 05:35:21;;;;;;;55.20;31.67;;;-0.10;99.90;;;;;;5053756;28;20028;-68
2021/11/11 05:37:48;;;;;;;64.55;33.08;;;-0.10;99.90;;;;;;5052899;28;20036;-68
2021/11/11 05:40:16;;;;;;;56.42;30.33;;;-0.20;99.90;;;;;;5053906;28;20025;-67
2021/11/11 05:42:43;;;;;;;60.28;31.98;;;-0.30;99.90;;;;;;5052960;28;20040;-68
2021/11/11 05:45:09;;;;;;;61.67;33.60;;;-0.30;99.90;;;;;;5053601;28;20076;-67
2021/11/11 05:47:36;;;;;;;71.85;37.38;;;-0.40;99.90;;;;;;5053001;28;20029;-68
2021/11/11 05:50:03;;;;;;;70.72;36.63;;;-0.30;99.90;;;;;;5053325;28;20078;-68
2021/11/11 05:52:29;;;;;;;65.55;34.47;;;-0.30;99.90;;;;;;5052622;28;20036;-67
2021/11/11 05:54:55;;;;;;;62.42;32.35;;;-0.30;99.90;;;;;;5052625;28;20029;-67
2021/11/11 05:57:21;;;;;;;65.75;33.05;;;-0.30;99.90;;;;;;5053320;28;21525;-67
2021/11/11 05:59:46;;;;;;;60.90;32.00;;;-0.20;99.90;;;;;;5050051;28;20029;-68
2021/11/11 06:02:13;;;;;;;59.30;31.88;;;-0.20;99.90;;;;;;5053436;28;20028;-68
2021/11/11 06:04:40;;;;;;;61.28;31.95;;;-0.10;99.90;;;;;;5052346;28;20018;-68
2021/11/11 06:07:06;;;;;;;65.32;34.55;;;-0.10;99.90;;;;;;5054554;28;20029;-68
2021/11/11 06:09:38;;;;;;;63.00;33.22;;;-0.10;99.90;;;;;;5054339;28;20071;-68
2021/11/11 06:12:04;;;;;;;64.63;34.63;;;-0.10;99.90;;;;;;5054443;28;20056;-68
2021/11/11 06:14:30;;;;;;;58.78;32.63;;;-0.10;99.90;;;;;;5053597;28;20037;-68
2021/11/11 06:16:57;;;;;;;69.53;35.35;;;-0.20;99.90;;;;;;5053840;28;20074;-68
2021/11/11 06:19:22;;;;;;;64.55;36.67;;;-0.20;99.90;;;;;;5054287;28;20462;-67
2021/11/11 06:21:48;;;;;;;69.35;35.42;;;-0.30;99.90;;;;;;5054368;28;20047;-68
2021/11/11 06:24:15;;;;;;;66.10;34.50;;;-0.30;99.90;;;;;;5054233;28;20028;-68
2021/11/11 06:26:41;;;;;;;69.45;35.50;;;-0.40;99.90;;;;;;5065698;28;20020;-71
2021/11/11 06:29:08;;;;;;;79.85;38.20;;;-0.40;99.90;;;;;;5053968;28;20045;-69
2021/11/11 06:31:36;;;;;;;80.95;40.28;;;-0.40;99.90;;;;;;5053263;28;20485;-69
2021/11/11 06:34:02;;;;;;;75.07;37.20;;;-0.40;99.90;;;;;;5054134;28;20056;-69
2021/11/11 06:36:28;;;;;;;71.70;34.85;;;-0.30;99.90;;;;;;5053879;28;20513;-70
2021/11/11 06:38:54;;;;;;;73.35;33.92;;;-0.20;99.90;;;;;;5053195;28;20017;-70
2021/11/11 06:41:20;;;;;;;71.07;34.70;;;-0.20;99.90;;;;;;5054140;28;20040;-74
2021/11/11 06:43:47;;;;;;;82.38;38.60;;;-0.10;99.90;;;;;;5052642;28;20613;-68
2021/11/11 06:46:14;;;;;;;71.82;36.00;;;-0.10;99.90;;;;;;5053112;28;20057;-68
2021/11/11 06:48:40;;;;;;;71.10;37.63;;;-0.10;99.90;;;;;;5053196;28;20032;-68
2021/11/11 06:51:07;;;;;;;69.25;35.20;;;-0.10;99.90;;;;;;5039578;28;20044;-68
2021/11/11 06:53:35;;;;;;;64.65;34.05;;;0.00;99.90;;;;;;5054070;28;20382;-68
2021/11/11 06:56:01;;;;;;;64.70;33.33;;;0.00;99.90;;;;;;5053040;28;20040;-68
2021/11/11 06:58:27;;;;;;;64.80;34.25;;;-0.10;99.90;;;;;;5054363;28;20029;-68
2021/11/11 07:00:56;;;;;;;66.65;32.05;;;-0.10;99.90;;;;;;5053722;28;20059;-68
2021/11/11 07:03:23;;;;;;;71.60;34.73;;;-0.10;99.90;;;;;;5048100;28;20367;-68
2021/11/11 07:05:49;;;;;;;69.20;34.70;;;-0.10;99.90;;;;;;5054867;28;20029;-72
2021/11/11 07:08:16;;;;;;;66.53;33.53;;;-0.10;99.90;;;;;;5053651;28;20097;-72
2021/11/11 07:10:48;;;;;;;57.65;31.35;;;0.10;99.90;;;;;;5051912;28;20067;-72
2021/11/11 07:13:14;;;;;;;52.63;31.00;;;0.30;99.90;;;;;;5053387;28;20136;-72
2021/11/11 07:15:41;;;;;;;54.50;32.35;;;0.30;99.90;;;;;;5052145;28;20099;-72
2021/11/11 07:18:10;;;;;;;56.45;30.63;;;0.40;99.90;;;;;;5053060;28;20082;-69
2021/11/11 07:20:43;;;;;;;56.95;31.55;;;0.40;99.90;;;;;;5050487;28;20028;-68
2021/11/11 07:23:10;;;;;;;56.03;30.85;;;0.40;99.90;;;;;;5052350;28;20060;-68
2021/11/11 07:25:38;;;;;;;55.30;31.48;;;0.40;99.90;;;;;;5051252;28;20450;-68
2021/11/11 07:28:04;;;;;;;56.85;33.03;;;0.40;99.90;;;;;;5052872;28;20033;-68
2021/11/11 07:30:30;;;;;;;56.28;31.80;;;0.40;99.90;;;;;;5052812;28;20044;-68
2021/11/11 07:32:56;;;;;;;63.97;32.95;;;0.40;99.90;;;;;;5051945;28;20021;-68
2021/11/11 07:35:24;;;;;;;61.50;35.10;;;0.40;99.90;;;;;;5052085;28;20506;-68
2021/11/11 07:37:52;;;;;;;61.83;32.97;;;0.40;99.90;;;;;;5051650;28;20082;-68
2021/11/11 07:40:20;;;;;;;65.35;34.47;;;0.50;99.90;;;;;;5052144;28;20028;-67
2021/11/11 07:42:48;;;;;;;55.30;32.30;;;0.50;99.90;;;;;;5051503;28;20059;-67
2021/11/11 07:45:16;;;;;;;58.35;33.83;;;0.60;99.90;;;;;;5050798;28;20089;-67
2021/11/11 07:47:43;;;;;;;52.95;31.45;;;0.60;99.90;;;;;;5037440;28;20033;-67
2021/11/11 07:50:10;;;;;;;55.88;29.52;;;0.80;99.90;;;;;;5052006;28;20060;-67
2021/11/11 07:52:42;;;;;;;51.45;28.23;;;;;;;;;;5051513;28;20074;-68
2021/11/11 07:55:08;;;;;;;49.08;27.63;;;;;;;;;;5052317;28;20048;-67
2021/11/11 07:57:35;;;;;;;48.30;28.75;;;;;;;;;;5052145;28;20044;-67
2021/11/11 08:00:01;;;;;;;49.63;27.90;;;;;;;;;;5051091;28;20017;-67
2021/11/11 08:02:28;;;;;;;48.10;26.52;;;;;;;;;;5051304;28;20021;-67
2021/11/11 08:04:54;;;;;;;43.85;28.27;;;;;;;;;;5051149;28;20021;-68
2021/11/11 08:07:20;;;;;;;48.47;27.27;;;;;;;;;;5052284;28;20095;-67
2021/11/11 08:09:47;;;;;;;43.50;27.30;;;;;;;;;;5051267;28;20050;-66
2021/11/11 08:12:13;;;;;;;46.28;27.33;;;;;;;;;;5050353;28;20025;-67
2021/11/11 08:14:41;;;;;;;48.00;27.50;;;;;;;;;;5051515;28;20033;-66
2021/11/11 08:17:08;;;;;;;51.40;27.30;;;;;;;;;;5052015;28;20075;-66
2021/11/11 08:19:34;;;;;;;49.30;26.33;;;;;;;;;;5051867;28;20018;-66
2021/11/11 08:22:01;;;;;;;49.33;28.27;;;;;;;;;;5045640;28;20386;-66
2021/11/11 08:24:27;;;;;;;48.05;27.05;;;;;;;;;;5052563;28;20027;-66
2021/11/11 08:26:53;;;;;;;40.78;24.98;;;;;;;;;;5051836;28;20021;-66
2021/11/11 08:29:19;;;;;;;39.88;24.52;;;;;;;;;;5051266;28;20511;-66
2021/11/11 08:31:46;;;;;;;41.83;24.38;;;;;;;;;;5050123;28;20036;-66
2021/11/11 08:34:12;;;;;;;41.58;24.38;;;;;;;;;;5051870;28;20223;-66
2021/11/11 08:36:44;;;;;;;39.35;24.90;;;;;;;;;;5051378;28;20045;-66
2021/11/11 08:39:11;;;;;;;38.15;23.77;;;;;;;;;;5051594;28;20040;-66
2021/11/11 08:41:37;;;;;;;43.25;24.42;;;;;;;;;;5050998;28;20540;-66
2021/11/11 08:44:05;;;;;;;38.88;23.92;;;;;;;;;;5048455;28;20044;-67
2021/11/11 08:46:31;;;;;;;41.53;23.65;;;;;;;;;;5050702;28;20049;-66
2021/11/11 08:48:57;;;;;;;37.80;22.40;;;;;;;;;;5049748;28;20407;-66
2021/11/11 08:51:24;;;;;;;39.05;24.88;;;;;;;;;;5050301;28;20033;-66
2021/11/11 08:53:50;;;;;;;41.03;23.00;;;;;;;;;;5049536;28;20074;-66
2021/11/11 08:56:16;;;;;;;39.88;23.38;;;3.00;99.90;;;;;;5049622;28;20021;-66
2021/11/11 08:58:42;;;;;;;42.53;21.88;;;3.10;99.90;;;;;;5049358;28;20454;-66
2021/11/11 09:01:08;;;;;;;44.70;22.88;;;3.20;99.90;;;;;;5050607;28;20035;-66
2021/11/11 09:03:35;;;;;;;38.58;21.77;;;3.20;99.90;;;;;;5049182;28;20025;-66
2021/11/11 09:06:02;;;;;;;38.42;22.30;;;3.30;99.90;;;;;;5046864;28;20044;-67
2021/11/11 09:08:29;;;;;;;38.50;23.27;;;3.40;99.90;;;;;;5050398;28;20103;-66
2021/11/11 09:10:56;;;;;;;36.50;21.48;;;3.40;99.90;;;;;;5050531;28;20025;-66
2021/11/11 09:13:22;;;;;;;34.58;21.95;;;3.40;99.90;;;;;;5050459;28;20100;-66
2021/11/11 09:15:48;;;;;;;45.08;23.02;;;3.50;99.90;;;;;;5050837;28;20112;-67
2021/11/11 09:18:14;;;;;;;40.30;24.23;;;3.60;99.90;;;;;;5049439;28;20646;-67
2021/11/11 09:20:46;;;;;;;38.15;21.80;;;3.70;99.90;;;;;;5057896;28;20051;-66
2021/11/11 09:23:12;;;;;;;33.72;20.92;;;3.70;99.90;;;;;;5049503;28;20547;-66
2021/11/11 09:25:38;;;;;;;47.05;23.58;;;3.80;99.90;;;;;;5049331;28;20040;-67
2021/11/11 09:28:05;;;;;;;42.47;23.10;;;3.80;99.90;;;;;;5049788;28;20037;-67
2021/11/11 09:30:34;;;;;;;40.58;23.60;;;3.90;99.90;;;;;;5049356;28;20051;-67
2021/11/11 09:33:00;;;;;;;36.25;21.15;;;4.00;99.90;;;;;;5031857;28;20029;-67
2021/11/11 09:35:26;;;;;;;31.17;20.95;;;4.10;99.90;;;;;;5050497;28;20044;-67
2021/11/11 09:37:53;;;;;;;32.83;21.30;;;4.20;99.90;;;;;;5049495;28;20344;-67
2021/11/11 09:40:23;;;;;;;35.97;22.67;;;4.20;99.90;;;;;;5049442;28;20112;-67
2021/11/11 09:42:50;;;;;;;36.08;21.25;;;4.20;99.90;;;;;;5048545;28;20052;-67
2021/11/11 09:45:20;;;;;;;32.15;20.45;;;4.30;99.90;;;;;;5048535;28;20049;-67
2021/11/11 09:47:48;;;;;;;38.13;22.92;;;4.40;99.90;;;;;;5046779;28;20037;-68
2021/11/11 09:50:14;;;;;;;36.05;21.90;;;4.40;99.90;;;;;;5049230;28;20498;-67
2021/11/11 09:52:43;;;;;;;32.42;20.70;;;4.50;99.90;;;;;;5050527;28;20017;-67
2021/11/11 10:00:48;;;;;;;37.42;22.40;;;4.90;99.90;;;;;;5049907;28;20123;-67
2021/11/11 10:03:15;;;;;;;36.92;22.05;;;5.00;99.90;;;;;;5047573;28;20025;-67
2021/11/11 10:05:46;;;;;;;39.50;22.35;;;5.00;99.90;;;;;;5052631;28;20330;-67
2021/11/11 10:08:40;;;;;;;37.70;20.65;;;5.10;99.90;;;;;;5052509;28;20063;-67
2021/11/11 10:11:32;;;;;;;35.05;23.17;;;5.20;99.90;;;;;;5052800;28;20101;-67
2021/11/11 10:14:06;;;;;;;29.45;20.88;;;5.20;99.90;;;;;;5052804;28;20059;-67
2021/11/11 10:16:39;;;;;;;35.22;21.10;;;5.30;99.90;;;;;;5052009;28;20171;-66
2021/11/11 10:19:05;;;;;;;33.40;20.25;;;5.30;99.90;;;;;;5052680;28;20029;-67
2021/11/11 10:21:40;;;;;;;40.38;22.80;;;5.30;99.90;;;;;;5052993;28;20070;-66
2021/11/11 10:24:11;;;;;;;35.72;21.35;;;5.50;99.90;;;;;;5052176;28;20055;-66
2021/11/11 10:26:41;;;;;;;36.60;22.20;;;5.60;99.90;;;;;;5051581;28;20029;-67
2021/11/11 10:29:23;;;;;;;37.78;21.40;;;5.70;99.90;;;;;;5052588;28;20079;-67
2021/11/11 10:31:54;;;;;;;41.13;20.42;;;5.70;99.90;;;;;;5051202;28;20037;-67
2021/11/11 10:34:21;;;;;;;36.85;22.35;;;5.70;99.90;;;;;;5053423;28;20437;-66
2021/11/11 10:36:51;;;;;;;34.67;21.70;;;5.70;99.90;;;;;;5052299;28;20025;-67
2021/11/11 10:39:24;;;;;;;33.25;20.02;;;5.80;99.90;;;;;;5053086;28;20029;-67
2021/11/11 10:41:52;;;;;;;29.98;20.10;;;5.90;99.90;;;;;;5051953;28;20032;-67
2021/11/11 10:44:25;;;;;;;34.53;19.70;;;6.00;99.90;;;;;;5052992;28;20090;-67
2021/11/11 10:46:55;;;;;;;32.45;21.02;;;6.10;99.90;;;;;;5052210;28;20037;-67
2021/11/11 10:49:23;;;;;;;32.67;20.02;;;6.10;99.90;;;;;;5052956;28;20055;-67
2021/11/11 10:51:49;;;;;;;34.85;19.67;;;6.20;99.90;;;;;;5051957;28;20040;-67
2021/11/11 10:54:15;;;;;;;36.65;19.92;;;6.20;99.90;;;;;;5052577;28;20029;-67
2021/11/11 10:56:50;;;;;;;32.15;20.15;;;6.30;99.90;;;;;;5051405;28;20079;-67
2021/11/11 10:59:19;;;;;;;32.25;20.58;;;6.30;99.90;;;;;;5036658;28;20033;-67
2021/11/11 11:02:01;;;;;;;30.75;20.63;;;6.40;99.90;;;;;;5047809;28;20033;-67
2021/11/11 11:04:28;;;;;;;40.78;22.00;;;6.60;99.90;;;;;;5052445;28;20025;-67
2021/11/11 11:07:15;;;;;;;31.98;20.45;;;6.60;99.90;;;;;;5052322;28;20017;-67
2021/11/11 11:09:41;;;;;;;33.00;19.98;;;6.70;99.90;;;;;;5053064;28;20039;-67
2021/11/11 11:12:26;;;;;;;36.78;21.08;;;6.70;99.90;;;;;;5051823;28;20095;-67
2021/11/11 11:14:53;;;;;;;31.33;19.58;;;6.90;99.90;;;;;;5050419;28;20033;-68
2021/11/11 11:17:19;;;;;;;31.95;20.00;;;6.90;99.90;;;;;;5052403;28;20348;-68
2021/11/11 11:19:48;;;;;;;32.08;20.08;;;6.90;99.90;;;;;;5052987;28;20048;-68
2021/11/11 11:22:24;;;;;;;28.67;18.70;;;6.90;99.90;;;;;;5052968;28;20025;-68
2021/11/11 11:25:04;;;;;;;38.58;20.10;;;7.00;99.90;;;;;;5051961;28;20558;-68
2021/11/11 11:27:35;;;;;;;29.83;18.63;;;7.10;99.90;;;;;;5052154;28;20025;-67
2021/11/11 11:30:10;;;;;;;32.13;19.08;;;7.10;99.90;;;;;;5052101;28;20040;-68
2021/11/11 11:32:41;;;;;;;28.75;19.08;;;7.10;99.90;;;;;;5035920;28;20032;-68
2021/11/11 11:35:09;;;;;;;30.27;19.20;;;7.20;99.90;;;;;;5052230;28;20539;-68
2021/11/11 11:37:35;;;;;;;32.30;19.92;;;7.20;99.90;;;;;;5052655;28;20032;-68
2021/11/11 11:40:14;;;;;;;31.02;19.85;;;7.30;99.90;;;;;;5051152;28;20033;-68
2021/11/11 11:42:43;;;;;;;37.70;19.80;;;7.30;99.90;;;;;;5051805;28;20048;-68
2021/11/11 11:45:12;;;;;;;31.95;18.92;;;7.30;99.90;;;;;;5051649;28;20060;-68
2021/11/11 11:47:42;;;;;;;32.55;18.35;;;7.30;99.90;;;;;;5052782;28;20044;-66
2021/11/11 11:50:08;;;;;;;30.58;18.60;;;7.20;99.90;;;;;;5051904;28;20202;-67
2021/11/11 11:52:35;;;;;;;29.75;19.63;;;7.20;99.90;;;;;;5052138;28;20033;-67
2021/11/11 11:55:09;;;;;;;29.98;18.48;;;7.20;99.90;;;;;;5051760;28;20482;-66
2021/11/11 12:00:37;;;;;;;25.92;17.92;;;7.20;99.90;;;;;;5052704;28;20029;-67
2021/11/11 12:08:47;;;;;;;27.02;17.67;;;7.20;99.90;;;;;;5051099;28;20090;-67
2021/11/11 12:11:48;;;;;;;31.73;22.25;;;7.20;99.90;;;;;;5051712;28;20094;-67
2021/11/11 12:14:38;;;;;;;27.98;20.48;;;7.30;99.90;;;;;;5032627;28;20076;-66
2021/11/11 12:40:01;;;;;;;26.50;18.40;;;7.30;99.90;;;;;;5050327;28;20595;-66
2021/11/11 12:42:43;;;;;;;28.23;19.42;;;7.30;99.90;;;;;;5051034;28;20523;-67
2021/11/11 12:45:21;;;;;;;28.20;19.38;;;7.40;99.90;;;;;;5049343;28;20103;-67
2021/11/11 12:48:09;;;;;;;27.63;18.02;;;7.40;99.90;;;;;;5051339;28;20043;-67
2021/11/11 12:50:35;;;;;;;28.27;18.38;;;;;;;;;;5051226;28;20099;-66
2021/11/11 12:53:19;;;;;;;29.58;19.70;;;7.90;99.90;;;;;;5050515;28;20025;-67
2021/11/11 12:55:57;;;;;;;26.98;19.10;;;7.90;99.90;;;;;;5051444;28;20029;-67
2021/11/11 12:58:43;;;;;;;28.17;19.42;;;8.00;99.90;;;;;;5049204;28;20037;-67
2021/11/11 13:01:16;;;;;;;33.70;19.90;;;8.00;99.90;;;;;;5032396;28;20160;-67
2021/11/11 13:04:00;;;;;;;28.83;19.08;;;8.00;99.90;;;;;;5036062;28;20536;-67
2021/11/11 13:06:35;;;;;;;29.58;20.10;;;8.00;99.90;;;;;;5031382;28;20104;-67
2021/11/11 13:09:08;;;;;;;32.35;20.17;;;7.90;99.90;;;;;;5030578;28;20068;-67
2021/11/11 13:11:38;;;;;;;30.52;21.55;;;7.80;99.90;;;;;;5030062;28;20027;-67
2021/11/11 13:14:18;;;;;;;30.43;21.43;;;7.70;99.90;;;;;;5030498;28;20042;-68
2021/11/11 13:17:05;;;;;;;31.08;22.25;;;7.60;99.90;;;;;;5030123;28;20394;-67
2021/11/11 13:20:12;;;;;;;37.35;22.83;;;7.50;99.90;;;;;;5029016;28;20065;-67
2021/11/11 13:23:29;;;;;;;30.23;20.58;;;7.50;99.90;;;;;;5003448;28;20033;-67
2021/11/11 16:20:12;;;;;;;75.90;42.35;;;3.40;99.90;;;;;;5031294;28;20036;-68
2021/11/11 16:27:38;;;;;;;77.90;43.38;;;3.40;99.90;;;;;;5051704;28;20033;-67
2021/11/11 16:30:17;;;;;;;81.72;44.78;;;3.40;99.90;;;;;;5049421;28;20032;-68
2021/11/11 16:32:43;;;;;;;79.70;43.60;;;3.40;99.90;;;;;;5051044;28;20043;-67
2021/11/11 16:35:12;;;;;;;78.95;43.17;;;3.40;99.90;;;;;;5034565;28;20084;-67
2021/11/11 16:37:38;;;;;;;78.63;44.40;;;3.40;99.90;;;;;;5031848;28;20048;-67
2021/11/11 16:40:07;;;;;;;85.38;45.22;;;3.40;99.90;;;;;;5031232;28;20028;-67
2021/11/11 16:42:34;;;;;;;80.47;45.63;;;3.40;99.90;;;;;;5048168;28;20029;-67
2021/11/11 16:45:00;;;;;;;78.78;43.28;;;3.30;99.90;;;;;;5050392;28;20425;-67
2021/11/11 16:47:26;;;;;;;87.68;47.38;;;3.30;99.90;;;;;;5039080;28;20038;-66
2021/11/11 16:49:52;;;;;;;89.10;43.72;;;3.30;99.90;;;;;;5036278;28;20517;-66
2021/11/11 16:52:17;;;;;;;84.88;45.53;;;3.30;99.90;;;;;;5049353;28;20025;-65
2021/11/11 16:54:43;;;;;;;77.72;44.28;;;3.30;99.90;;;;;;5051163;28;20033;-66